createdAt,value
2019-05-07T00:01:56.457Z,81.7
2019-05-07T00:06:52.694Z,82.1
2019-05-07T00:11:53.095Z,82.2
2019-05-07T00:16:50.590Z,82.5
2019-05-07T00:21:52.541Z,82.8
2019-05-07T00:26:53.126Z,82.7
2019-05-07T00:31:52.037Z,83
2019-05-07T00:36:52.007Z,83.2
2019-05-07T00:41:52.192Z,83.3
2019-05-07T00:46:54.658Z,83.2
2019-05-07T00:50:35.162Z,83.4
2019-05-07T00:55:34.711Z,82.7
2019-05-07T01:00:35.249Z,83.2
2019-05-07T01:05:34.735Z,83.4
2019-05-07T01:10:34.964Z,83.6
2019-05-07T01:15:53.144Z,83.8
2019-05-07T01:20:34.948Z,83.8
2019-05-07T01:25:34.842Z,84
2019-05-07T01:30:34.601Z,83.1
2019-05-07T01:35:34.802Z,83.8
2019-05-07T01:40:34.508Z,83.3
2019-05-07T01:45:49.851Z,83.7
2019-05-07T01:50:34.344Z,83.8
2019-05-07T01:55:34.020Z,83.1
2019-05-07T02:00:34.716Z,83.4
2019-05-07T02:05:34.767Z,83.4
2019-05-07T02:10:34.205Z,83
2019-05-07T02:15:34.442Z,83.5
2019-05-07T02:20:34.341Z,83.8
2019-05-07T02:25:34.728Z,83.7
2019-05-07T02:30:37.299Z,83.8
2019-05-07T02:35:35.485Z,83.2
2019-05-07T02:40:36.128Z,84
2019-05-07T02:45:35.405Z,84.1
2019-05-07T02:50:35.118Z,83.7
2019-05-07T02:55:35.825Z,83.9
2019-05-07T03:00:45.399Z,83.5
2019-05-07T03:05:36.865Z,84.5
2019-05-07T03:10:36.305Z,84.6
2019-05-07T03:15:35.565Z,84.9
2019-05-07T03:20:35.579Z,84.8
2019-05-07T03:25:35.997Z,84.8
2019-05-07T03:30:47.924Z,84.9
2019-05-07T03:35:39.741Z,84.9
2019-05-07T03:40:35.004Z,85
2019-05-07T03:45:35.670Z,85.1
2019-05-07T03:50:35.974Z,84.6
2019-05-07T03:55:35.459Z,84.4
2019-05-07T04:00:35.460Z,83.9
2019-05-07T04:05:36.415Z,82.7
2019-05-07T04:10:36.169Z,82.8
2019-05-07T04:15:43.779Z,82.6
2019-05-07T04:20:35.529Z,82.8
2019-05-07T04:25:36.763Z,82.5
2019-05-07T04:30:35.293Z,82.8
2019-05-07T04:57:35.081Z,81.8
2019-05-07T05:02:34.646Z,80.9
2019-05-07T05:07:35.489Z,80
2019-05-07T05:12:34.645Z,80.5
2019-05-07T05:27:32.768Z,80.3
2019-05-07T05:37:32.114Z,79.7
2019-05-07T05:57:32.227Z,75.2
2019-05-07T06:02:32.343Z,73.9
2019-05-07T06:07:34.032Z,74.5
2019-05-07T06:17:32.034Z,72.3
2019-05-07T06:22:35.254Z,71.9
2019-05-07T06:27:32.478Z,72.3
2019-05-07T06:32:31.994Z,69.8
2019-05-07T06:47:32.578Z,66.9
2019-05-07T07:02:32.809Z,66.5
2019-05-07T07:07:54.748Z,64.5
2019-05-07T07:12:35.280Z,65.4
2019-05-07T07:17:34.930Z,64.8
2019-05-07T07:22:34.769Z,64.6
2019-05-07T07:27:35.209Z,63.7
2019-05-07T07:32:34.570Z,65.7
2019-05-07T07:37:35.326Z,65.5
2019-05-07T07:42:42.451Z,64.1
2019-05-07T07:47:42.209Z,66.2
2019-05-07T07:52:42.004Z,65.4
2019-05-07T07:57:42.667Z,66.2
2019-05-07T08:02:42.380Z,66.8
2019-05-07T08:07:42.554Z,67.4
2019-05-07T08:12:42.154Z,66.8
2019-05-07T08:17:41.876Z,67.1
2019-05-07T08:22:42.221Z,67.1
2019-05-07T08:27:41.946Z,68.4
2019-05-07T08:32:42.522Z,69.1
2019-05-07T08:37:44.780Z,73
2019-05-07T08:42:41.870Z,76.4
2019-05-07T08:47:42.046Z,79.4
2019-05-07T08:52:41.936Z,79.4
2019-05-07T08:57:42.022Z,78.5
2019-05-07T09:02:42.007Z,76.6
2019-05-07T09:08:02.089Z,76.5
2019-05-07T09:13:02.683Z,77.3
2019-05-07T09:18:01.994Z,74.9
2019-05-07T09:23:02.014Z,74.5
2019-05-07T09:28:02.587Z,74.4
2019-05-07T09:33:02.431Z,72.5
2019-05-07T09:37:58.600Z,75.6
2019-05-07T09:43:05.048Z,74
2019-05-07T09:48:02.590Z,73.2
2019-05-07T09:53:02.112Z,71.5
2019-05-07T09:58:01.938Z,64.8
2019-05-07T10:03:01.221Z,66.4
2019-05-07T10:08:01.748Z,65
2019-05-07T10:13:03.992Z,67
2019-05-07T10:17:57.043Z,67.5
2019-05-07T10:23:02.385Z,62.4
2019-05-07T10:27:58.518Z,61.9
2019-05-07T10:33:01.762Z,58.3
2019-05-07T10:38:01.870Z,59.3
2019-05-07T10:43:00.484Z,56.6
2019-05-07T10:48:02.410Z,55.7
2019-05-07T10:53:02.040Z,58.8
2019-05-07T10:58:02.882Z,56.6
2019-05-07T11:03:02.148Z,56.4
2019-05-07T11:08:12.849Z,55.8
2019-05-07T11:13:12.627Z,51.6
2019-05-07T11:18:12.603Z,52.9
2019-05-07T11:23:11.043Z,51.4
2019-05-07T11:28:12.285Z,49.7
2019-05-07T11:33:12.733Z,52.6
2019-05-07T11:38:26.156Z,54.1
2019-05-07T11:43:12.876Z,55.4
2019-05-07T11:48:07.632Z,58.3
2019-05-07T11:53:08.358Z,59.3
2019-05-07T11:58:12.638Z,60.3
2019-05-07T12:03:11.441Z,60.9
2019-05-07T12:08:07.711Z,62
2019-05-07T12:13:12.250Z,62.8
2019-05-07T12:18:11.854Z,64.2
2019-05-07T12:23:12.119Z,67.3
2019-05-07T12:28:08.524Z,70.2
2019-05-07T12:33:12.311Z,71.3
2019-05-07T12:38:07.674Z,76.8
2019-05-07T12:43:12.641Z,74.1
2019-05-07T12:48:14.316Z,72.8
2019-05-07T12:53:12.319Z,71
2019-05-07T12:58:12.551Z,75.7
2019-05-07T13:03:12.720Z,74.4
2019-05-07T13:08:07.782Z,75.2
2019-05-07T13:13:12.278Z,76.2
2019-05-07T13:18:08.748Z,75.1
2019-05-07T13:23:07.798Z,72.1
2019-05-07T13:28:11.819Z,75.5
2019-05-07T13:33:15.019Z,77.9
2019-05-07T13:38:16.397Z,77.1
2019-05-07T13:43:15.325Z,77.2
2019-05-07T13:48:15.458Z,76.2
2019-05-07T13:53:14.485Z,78
2019-05-07T13:58:16.243Z,80.9
2019-05-07T14:03:15.678Z,78.3
2019-05-07T14:08:16.336Z,79.9
2019-05-07T14:13:32.385Z,79.4
2019-05-07T14:18:14.728Z,77.9
2019-05-07T14:23:16.399Z,78.5
2019-05-07T14:28:16.760Z,78.6
2019-05-07T14:33:16.388Z,78.1
2019-05-07T14:38:16.016Z,78.8
2019-05-07T14:43:16.125Z,76.2
2019-05-07T14:48:15.495Z,78.2
2019-05-07T14:53:17.284Z,77.4
2019-05-07T14:58:16.420Z,78.5
2019-05-07T15:03:16.580Z,78.7
2019-05-07T15:08:32.248Z,78.1
2019-05-07T15:13:16.758Z,82.7
2019-05-07T15:18:17.764Z,83.3
2019-05-07T15:23:15.245Z,82.4
2019-05-07T15:28:16.421Z,85.1
2019-05-07T15:33:16.739Z,83.8
2019-05-07T15:38:14.964Z,84.8
2019-05-07T15:43:25.307Z,84.7
2019-05-07T15:48:21.975Z,84
2019-05-07T15:53:21.857Z,83.8
2019-05-07T16:20:52.243Z,86.3
2019-05-07T16:25:52.660Z,85.8
2019-05-07T16:37:09.630Z,86.9
2019-05-07T17:02:56.171Z,86.8
2019-05-07T17:07:55.106Z,85.9
2019-05-07T17:12:56.207Z,85.6
2019-05-07T17:17:55.252Z,85.8
2019-05-07T17:22:55.232Z,84.6
2019-05-07T18:12:02.664Z,83.5
2019-05-07T18:17:04.223Z,83
2019-05-07T18:22:04.782Z,85
2019-05-07T18:27:04.999Z,85.3
2019-05-07T18:32:01.658Z,84.6
2019-05-07T18:37:04.243Z,84.6
2019-05-07T18:42:06.762Z,84.9
2019-05-07T18:47:04.480Z,84.8
2019-05-07T18:57:51.761Z,84.1
2019-05-07T19:02:52.281Z,86.7
2019-05-07T19:08:08.493Z,86.8
2019-05-07T19:12:52.629Z,87.1
2019-05-07T19:17:51.091Z,88.2
2019-05-07T19:22:54.889Z,87.8
2019-05-07T19:27:52.604Z,87.3
2019-05-07T19:32:52.142Z,87.3
2019-05-07T19:37:52.859Z,87.1
2019-05-07T19:42:52.214Z,86
2019-05-07T19:47:52.321Z,87.7
2019-05-07T19:52:52.157Z,89.2
2019-05-07T19:57:54.158Z,88
2019-05-07T20:02:54.774Z,88.7
2019-05-07T20:08:01.724Z,89.1
2019-05-07T20:12:54.317Z,88.6
2019-05-07T20:17:54.735Z,88
2019-05-07T20:22:53.958Z,88
2019-05-07T20:27:54.833Z,88.3
2019-05-07T20:32:54.414Z,88.8
2019-05-07T20:37:54.400Z,88.4
2019-05-07T20:42:54.557Z,88.8
2019-05-07T20:47:54.892Z,89
2019-05-07T20:52:54.539Z,88.2
2019-05-07T20:58:05.655Z,88.8
2019-05-07T21:03:04.857Z,88.4
2019-05-07T21:08:00.761Z,89.3
2019-05-07T21:13:04.173Z,88.9
2019-05-07T21:18:01.085Z,88.3
2019-05-07T21:23:02.487Z,87.8
2019-05-07T21:28:02.080Z,87.7
2019-05-07T21:33:00.124Z,88.9
2019-05-07T21:38:00.739Z,89.5
2019-05-07T21:43:00.429Z,89.3
2019-05-07T21:53:02.698Z,89.8
2019-05-07T21:57:58.101Z,90.2
2019-05-07T22:03:01.941Z,90.4
2019-05-07T22:07:58.131Z,88.7
2019-05-07T22:13:00.287Z,88.6
2019-05-07T22:18:04.761Z,89
2019-05-07T22:23:02.637Z,88.2
2019-05-07T22:27:58.733Z,89.1
2019-05-07T22:33:02.434Z,88
2019-05-07T22:38:05.964Z,89.3
2019-05-07T22:42:58.047Z,89.4
2019-05-07T22:48:02.784Z,90.8
2019-05-07T22:52:58.016Z,89.9
2019-05-07T22:58:00.877Z,90.3
2019-05-07T23:03:02.684Z,90.7
2019-05-07T23:08:05.129Z,90.8
2019-05-07T23:13:04.440Z,89.4
2019-05-07T23:18:06.296Z,90.4
2019-05-07T23:23:06.476Z,89.9
2019-05-07T23:28:14.669Z,89.3
2019-05-07T23:33:12.034Z,89.2
2019-05-07T23:38:11.887Z,89.4
2019-05-07T23:43:12.227Z,89.6
2019-05-07T23:48:08.487Z,89.8
2019-05-07T23:53:12.677Z,90.4
2019-05-07T23:58:13.688Z,90.1
